Time;durP1;ratioP1;P1;durP2;ratioP2;P2;SDS_P1;SDS_P2;PMS_P1;PMS_P2;Temp;Humidity;BMP_temperature;BMP_pressure;BME280_temperature;BME280_humidity;BME280_pressure;Samples;Min_cycle;Max_cycle;Signal;HPM_P1;HPM_P2
2021/10/21 00:00:14;;;;;;;5.47;4.60;;;21.80;63.40;;;;;;5043042;28;20278;-50
2021/10/21 00:02:40;;;;;;;5.93;5.37;;;21.80;63.80;;;;;;5038438;28;20193;-51
2021/10/21 00:05:07;;;;;;;5.97;4.90;;;21.70;63.40;;;;;;5034697;28;20396;-49
2021/10/21 00:07:33;;;;;;;5.40;4.90;;;21.80;63.70;;;;;;5044402;28;20221;-51
2021/10/21 00:10:02;;;;;;;6.13;5.50;;;21.70;63.50;;;;;;5037491;28;20529;-49
2021/10/21 00:12:28;;;;;;;6.00;5.43;;;21.60;63.30;;;;;;5036059;28;20446;-49
2021/10/21 00:14:54;;;;;;;7.03;6.30;;;21.50;64.30;;;;;;5044743;28;21052;-53
2021/10/21 00:17:19;;;;;;;6.27;5.67;;;21.50;64.60;;;;;;5050242;28;20518;-53
2021/10/21 00:19:45;;;;;;;6.40;5.83;;;21.50;64.70;;;;;;5039889;28;20327;-51
2021/10/21 00:22:11;;;;;;;7.37;6.07;;;21.50;64.70;;;;;;5041430;28;20220;-49
2021/10/21 00:24:36;;;;;;;5.27;4.73;;;21.50;64.80;;;;;;5042409;28;20193;-48
2021/10/21 00:27:02;;;;;;;7.27;5.43;;;21.40;65.00;;;;;;5047355;28;20189;-49
2021/10/21 00:29:28;;;;;;;6.97;4.90;;;21.30;65.30;;;;;;5043858;28;20215;-49
2021/10/21 00:31:53;;;;;;;5.73;5.23;;;21.20;65.70;;;;;;5044088;28;20660;-49
2021/10/21 00:34:19;;;;;;;6.50;5.50;;;21.20;65.70;;;;;;5047532;28;20742;-48
2021/10/21 00:36:45;;;;;;;9.80;7.23;;;21.10;66.00;;;;;;5046192;28;20196;-51
2021/10/21 00:39:11;;;;;;;9.43;7.63;;;21.10;66.00;;;;;;5039842;28;20559;-48
2021/10/21 00:41:37;;;;;;;5.87;5.27;;;21.00;66.40;;;;;;5045417;28;20493;-50
2021/10/21 00:44:08;;;;;;;8.03;6.33;;;20.90;66.60;;;;;;5043837;28;20640;-48
2021/10/21 00:46:35;;;;;;;8.73;6.10;;;20.60;67.80;;;;;;5045370;28;20459;-51
2021/10/21 00:49:00;;;;;;;9.10;6.50;;;20.40;69.00;;;;;;5046665;28;20431;-50
2021/10/21 00:51:27;;;;;;;6.70;6.10;;;20.10;70.00;;;;;;5043574;28;21037;-48
2021/10/21 00:53:52;;;;;;;8.47;7.50;;;19.90;70.50;;;;;;5039104;28;20533;-49
2021/10/21 00:56:18;;;;;;;7.37;6.60;;;19.90;70.60;;;;;;5042780;28;20484;-51
2021/10/21 00:58:49;;;;;;;7.27;5.90;;;19.90;71.00;;;;;;5046463;28;20721;-50
2021/10/21 01:01:15;;;;;;;10.73;7.67;;;19.60;71.50;;;;;;5046939;28;20447;-48
2021/10/21 01:03:40;;;;;;;7.97;7.17;;;19.30;72.90;;;;;;5041384;28;20934;-48
2021/10/21 01:06:06;;;;;;;7.50;6.50;;;18.50;75.70;;;;;;5040515;28;20251;-49
2021/10/21 01:08:31;;;;;;;6.87;6.23;;;18.00;78.70;;;;;;5036507;28;21924;-48
2021/10/21 01:10:57;;;;;;;7.63;6.77;;;17.50;81.00;;;;;;5037400;28;20211;-48
2021/10/21 01:13:23;;;;;;;9.00;7.00;;;17.30;83.20;;;;;;5046625;28;20235;-48
2021/10/21 01:15:49;;;;;;;9.43;6.50;;;17.20;84.40;;;;;;5048022;28;20203;-48
2021/10/21 01:18:14;;;;;;;7.53;6.00;;;17.40;84.50;;;;;;5050611;28;20592;-48
2021/10/21 01:20:40;;;;;;;11.60;6.77;;;17.50;83.80;;;;;;5049504;28;20188;-47
2021/10/21 01:23:05;;;;;;;7.40;6.60;;;17.90;82.60;;;;;;5054929;28;20287;-51
2021/10/21 01:25:31;;;;;;;5.90;5.30;;;18.30;80.60;;;;;;5047316;28;20199;-52
2021/10/21 01:27:57;;;;;;;7.83;7.13;;;18.50;78.90;;;;;;5046249;28;20249;-53
2021/10/21 01:30:27;;;;;;;7.10;6.37;;;18.60;78.10;;;;;;5041124;28;20196;-51
2021/10/21 01:32:55;;;;;;;6.63;6.03;;;18.90;77.10;;;;;;5037718;28;20211;-52
2021/10/21 01:35:22;;;;;;;7.30;6.33;;;19.10;75.80;;;;;;5041762;28;20435;-52
2021/10/21 01:37:47;;;;;;;6.40;5.80;;;19.20;75.10;;;;;;5034798;28;20444;-51
2021/10/21 01:40:16;;;;;;;5.93;5.33;;;19.10;75.30;;;;;;5038177;28;21298;-52
2021/10/21 01:42:42;;;;;;;8.53;5.90;;;18.70;76.10;;;;;;5042874;28;20192;-52
2021/10/21 01:45:22;;;;;;;6.33;5.73;;;18.50;77.30;;;;;;5044912;28;20439;-48
2021/10/21 01:47:48;;;;;;;5.70;5.20;;;18.80;77.20;;;;;;5043275;28;20432;-52
2021/10/21 01:50:14;;;;;;;6.37;5.77;;;18.90;76.50;;;;;;5039610;28;20486;-51
2021/10/21 01:52:40;;;;;;;5.87;5.37;;;18.80;76.50;;;;;;5043363;28;20443;-49
2021/10/21 01:55:07;;;;;;;5.90;5.40;;;18.70;77.00;;;;;;5039234;28;20204;-48
2021/10/21 01:57:33;;;;;;;5.73;5.23;;;18.60;77.20;;;;;;5040984;28;20267;-48
2021/10/21 01:59:59;;;;;;;6.50;5.70;;;18.40;77.40;;;;;;5044827;28;20950;-51
2021/10/21 02:02:24;;;;;;;5.00;4.60;;;18.60;77.20;;;;;;5049619;28;20196;-51
2021/10/21 02:04:50;;;;;;;6.00;5.50;;;18.70;76.50;;;;;;5053517;28;20191;-51
2021/10/21 02:07:15;;;;;;;5.90;5.10;;;18.70;76.60;;;;;;5045408;28;20193;-52
2021/10/21 02:09:41;;;;;;;4.80;4.10;;;18.80;75.10;;;;;;5042687;28;20204;-50
2021/10/21 02:12:07;;;;;;;4.80;4.30;;;19.00;74.80;;;;;;5042721;28;20196;-49
2021/10/21 02:14:33;;;;;;;4.90;4.50;;;18.90;74.70;;;;;;5041568;28;20646;-49
2021/10/21 02:16:59;;;;;;;4.47;4.07;;;18.80;75.00;;;;;;5044964;28;20193;-51
2021/10/21 02:19:24;;;;;;;8.73;4.70;;;18.80;75.60;;;;;;5042653;28;20295;-52
2021/10/21 02:21:50;;;;;;;4.73;4.33;;;18.90;75.30;;;;;;5044771;28;20442;-48
2021/10/21 02:24:15;;;;;;;5.90;5.07;;;18.50;76.20;;;;;;5043887;28;20652;-51
2021/10/21 02:26:41;;;;;;;5.37;4.87;;;18.40;76.70;;;;;;5046368;28;20199;-49
2021/10/21 02:29:07;;;;;;;5.97;5.47;;;18.50;77.60;;;;;;5049694;28;20319;-49
2021/10/21 02:31:32;;;;;;;5.93;4.47;;;18.50;77.30;;;;;;5052461;28;20188;-51
2021/10/21 02:33:58;;;;;;;5.27;4.77;;;18.50;77.30;;;;;;5048701;28;20731;-49
2021/10/21 02:36:24;;;;;;;5.93;4.47;;;18.50;77.70;;;;;;5048824;28;20644;-48
2021/10/21 02:38:49;;;;;;;5.43;4.93;;;18.60;77.10;;;;;;5058522;28;20227;-47
2021/10/21 02:41:15;;;;;;;8.37;5.30;;;18.50;77.50;;;;;;5046436;28;20219;-48
2021/10/21 02:43:42;;;;;;;6.67;4.80;;;18.50;77.20;;;;;;5054020;28;20276;-50
2021/10/21 02:46:08;;;;;;;5.10;4.60;;;18.60;76.60;;;;;;5050132;28;20188;-47
2021/10/21 02:48:34;;;;;;;5.57;5.07;;;18.70;76.90;;;;;;5047855;28;20459;-50
2021/10/21 02:51:00;;;;;;;5.80;5.23;;;18.80;76.50;;;;;;5048875;28;20496;-51
2021/10/21 02:53:28;;;;;;;5.13;4.73;;;18.90;76.10;;;;;;5047232;28;20228;-47
2021/10/21 02:55:55;;;;;;;6.30;5.07;;;18.80;76.50;;;;;;5049642;28;20193;-51
2021/10/21 02:58:20;;;;;;;6.50;5.87;;;18.90;76.30;;;;;;5048161;28;20526;-48
2021/10/21 03:00:46;;;;;;;5.33;4.90;;;18.90;75.70;;;;;;5050792;28;20463;-47
2021/10/21 03:03:11;;;;;;;5.80;5.30;;;18.80;76.20;;;;;;5048361;28;20189;-52
2021/10/21 03:05:37;;;;;;;5.93;5.37;;;18.90;76.50;;;;;;5045084;28;20200;-51
2021/10/21 03:08:03;;;;;;;5.50;5.10;;;18.60;76.60;;;;;;5041238;28;20203;-47
2021/10/21 03:10:28;;;;;;;5.10;4.60;;;18.80;77.10;;;;;;5041898;28;20188;-48
2021/10/21 03:12:54;;;;;;;5.67;5.03;;;18.90;76.50;;;;;;5048119;28;20643;-49
2021/10/21 03:15:19;;;;;;;4.97;4.57;;;18.90;75.90;;;;;;5047384;28;20285;-48
2021/10/21 03:17:45;;;;;;;5.10;4.70;;;18.80;76.00;;;;;;5046124;28;20659;-51
2021/10/21 03:20:12;;;;;;;5.43;5.03;;;18.90;76.00;;;;;;5045178;28;20350;-51
2021/10/21 03:22:39;;;;;;;8.60;5.10;;;18.70;76.00;;;;;;5044735;28;20196;-48
2021/10/21 03:25:05;;;;;;;6.40;4.70;;;18.70;76.80;;;;;;5047178;28;20450;-52
2021/10/21 03:27:31;;;;;;;4.47;4.17;;;18.80;76.10;;;;;;5046026;28;20515;-48
2021/10/21 03:29:57;;;;;;;5.23;4.73;;;19.00;75.70;;;;;;5041765;28;20451;-49
2021/10/21 03:32:22;;;;;;;4.93;4.43;;;19.10;75.50;;;;;;5045043;28;20556;-50
2021/10/21 03:34:48;;;;;;;4.13;3.73;;;18.90;74.90;;;;;;5045987;28;20188;-48
2021/10/21 03:37:13;;;;;;;4.37;4.03;;;18.80;75.90;;;;;;5050016;28;20196;-48
2021/10/21 03:39:39;;;;;;;4.50;3.97;;;18.70;76.00;;;;;;5045312;28;20271;-47
2021/10/21 03:42:08;;;;;;;3.93;3.53;;;18.80;76.90;;;;;;5045335;28;20200;-51
2021/10/21 03:44:35;;;;;;;4.03;3.60;;;18.70;76.60;;;;;;5042979;28;20791;-48
2021/10/21 03:47:01;;;;;;;3.90;3.60;;;18.80;76.30;;;;;;5042858;28;20458;-48
2021/10/21 03:49:26;;;;;;;3.93;3.60;;;18.80;75.50;;;;;;5054615;28;20423;-48
2021/10/21 03:51:52;;;;;;;3.87;3.57;;;18.80;75.70;;;;;;5058196;28;20189;-47
2021/10/21 03:54:18;;;;;;;3.43;2.73;;;18.90;75.10;;;;;;5051643;28;20180;-48
2021/10/21 03:56:43;;;;;;;3.70;2.67;;;18.80;74.30;;;;;;5048436;28;20283;-49
2021/10/21 03:59:10;;;;;;;2.73;2.50;;;18.50;74.50;;;;;;5040602;28;20579;-47
2021/10/21 04:01:35;;;;;;;3.20;2.03;;;18.50;74.20;;;;;;5044855;28;20599;-48
2021/10/21 04:04:01;;;;;;;4.30;1.77;;;18.60;73.40;;;;;;5051985;28;20431;-50
2021/10/21 04:06:27;;;;;;;1.80;1.63;;;18.50;74.50;;;;;;5054472;28;20582;-50
2021/10/21 04:08:52;;;;;;;1.77;1.60;;;18.40;71.90;;;;;;5052680;28;20277;-47
2021/10/21 04:11:18;;;;;;;1.63;1.20;;;18.60;72.10;;;;;;5055238;28;20197;-49
2021/10/21 04:13:44;;;;;;;2.97;1.80;;;18.70;71.50;;;;;;5051516;28;20192;-48
2021/10/21 04:16:09;;;;;;;3.93;2.10;;;18.70;70.40;;;;;;5056032;28;20179;-51
2021/10/21 04:18:35;;;;;;;2.07;1.37;;;18.70;69.30;;;;;;5056309;28;20232;-52
2021/10/21 04:21:00;;;;;;;1.30;1.20;;;18.50;68.80;;;;;;5048801;28;20643;-52
2021/10/21 04:23:26;;;;;;;2.17;1.20;;;18.30;66.50;;;;;;5051379;28;20208;-48
2021/10/21 04:25:52;;;;;;;1.40;1.20;;;18.20;66.80;;;;;;5057549;28;20550;-53
2021/10/21 04:28:17;;;;;;;1.53;1.10;;;18.10;65.30;;;;;;5048888;28;20187;-52
2021/10/21 04:30:43;;;;;;;10.33;1.20;;;18.10;65.00;;;;;;5056687;28;20583;-52
2021/10/21 04:33:09;;;;;;;1.33;0.90;;;18.30;63.90;;;;;;5050658;28;20697;-52
2021/10/21 04:35:34;;;;;;;1.50;1.00;;;18.10;61.80;;;;;;5054201;28;20200;-53
2021/10/21 04:38:02;;;;;;;2.10;1.07;;;18.00;60.60;;;;;;5051572;28;20441;-53
2021/10/21 04:40:28;;;;;;;1.40;1.10;;;18.00;60.20;;;;;;5053010;28;20279;-52
2021/10/21 04:42:53;;;;;;;1.43;1.33;;;17.80;59.90;;;;;;5052409;28;20542;-51
2021/10/21 04:45:19;;;;;;;2.13;1.03;;;17.80;61.60;;;;;;5052870;28;20635;-51
2021/10/21 04:47:45;;;;;;;1.30;1.00;;;17.70;59.20;;;;;;5061870;28;20211;-51
2021/10/21 04:50:10;;;;;;;3.90;1.10;;;17.80;59.00;;;;;;5052520;28;20271;-51
2021/10/21 04:52:37;;;;;;;3.00;1.10;;;17.60;57.60;;;;;;5051142;28;20284;-52
2021/10/21 04:55:08;;;;;;;2.10;0.70;;;17.70;58.30;;;;;;5047951;28;20226;-52
2021/10/21 04:57:33;;;;;;;2.10;0.97;;;17.40;55.30;;;;;;5052821;28;20483;-51
2021/10/21 04:59:59;;;;;;;1.90;0.70;;;17.50;56.60;;;;;;5051485;28;20518;-49
2021/10/21 05:02:25;;;;;;;1.17;0.90;;;17.70;55.90;;;;;;5052251;28;20189;-51
2021/10/21 05:04:50;;;;;;;2.20;0.97;;;17.60;54.70;;;;;;5054992;28;20197;-51
2021/10/21 05:07:16;;;;;;;2.20;0.83;;;17.50;55.30;;;;;;5064911;28;20203;-51
2021/10/21 05:09:42;;;;;;;6.43;1.40;;;17.60;54.60;;;;;;5040362;28;20237;-49
2021/10/21 05:12:08;;;;;;;2.63;1.00;;;17.60;54.90;;;;;;5049866;28;20443;-49
2021/10/21 05:14:34;;;;;;;5.07;1.40;;;17.40;53.90;;;;;;5053109;28;20195;-53
2021/10/21 05:16:59;;;;;;;6.20;1.47;;;17.40;54.10;;;;;;5055023;28;20443;-49
2021/10/21 05:19:25;;;;;;;5.50;1.17;;;17.20;53.60;;;;;;5048414;28;20244;-48
2021/10/21 05:21:50;;;;;;;2.40;1.07;;;17.40;54.10;;;;;;5051117;28;20678;-48
2021/10/21 05:24:16;;;;;;;5.27;1.40;;;17.60;54.10;;;;;;5049753;28;20228;-50
2021/10/21 05:26:42;;;;;;;7.40;1.33;;;17.60;52.00;;;;;;5055518;28;20192;-52
2021/10/21 05:29:07;;;;;;;1.77;1.03;;;17.70;52.60;;;;;;5050041;28;20193;-53
2021/10/21 05:31:33;;;;;;;4.43;1.13;;;17.40;52.20;;;;;;5048349;28;20192;-49
2021/10/21 05:33:58;;;;;;;2.10;1.00;;;17.40;52.10;;;;;;5040242;28;20688;-53
2021/10/21 05:36:24;;;;;;;2.30;1.30;;;17.50;52.30;;;;;;5040069;28;20188;-49
2021/10/21 05:38:51;;;;;;;5.97;1.30;;;17.30;51.10;;;;;;5039404;28;20252;-53
2021/10/21 05:41:17;;;;;;;3.40;1.10;;;17.30;52.10;;;;;;5042323;28;20208;-50
2021/10/21 05:43:42;;;;;;;4.53;1.17;;;17.40;51.50;;;;;;5047416;28;20427;-53
2021/10/21 05:46:08;;;;;;;2.90;1.37;;;17.40;51.60;;;;;;5045576;28;20216;-53
2021/10/21 05:48:33;;;;;;;3.67;1.30;;;17.20;51.20;;;;;;5043119;28;20201;-52
2021/10/21 05:51:01;;;;;;;5.80;1.63;;;17.20;51.50;;;;;;5046214;28;20682;-51
2021/10/21 05:53:26;;;;;;;8.60;1.60;;;17.10;51.50;;;;;;5050558;28;20193;-53
2021/10/21 05:55:52;;;;;;;2.00;1.00;;;17.00;51.40;;;;;;5043034;28;20957;-51
2021/10/21 05:58:18;;;;;;;2.50;1.13;;;16.90;51.50;;;;;;5049580;28;20197;-51
2021/10/21 06:00:44;;;;;;;5.60;1.47;;;16.70;51.40;;;;;;5046566;28;20192;-52
2021/10/21 06:03:10;;;;;;;2.03;1.33;;;16.60;52.00;;;;;;5046331;28;20200;-52
2021/10/21 06:05:36;;;;;;;5.50;1.50;;;16.40;52.00;;;;;;5051577;28;20220;-51
2021/10/21 06:08:02;;;;;;;1.67;1.30;;;16.50;52.10;;;;;;5044872;28;20436;-52
2021/10/21 06:10:30;;;;;;;4.13;1.27;;;16.20;51.80;;;;;;5039268;28;20427;-52
2021/10/21 06:12:58;;;;;;;4.37;0.97;;;16.20;52.10;;;;;;5047939;28;20443;-52
2021/10/21 06:15:25;;;;;;;6.03;1.53;;;16.40;52.00;;;;;;5041706;28;20462;-53
2021/10/21 06:17:50;;;;;;;4.50;1.47;;;16.50;52.10;;;;;;5048922;28;20431;-53
2021/10/21 06:20:16;;;;;;;7.73;1.80;;;16.60;52.20;;;;;;5044732;28;20566;-53
2021/10/21 06:22:43;;;;;;;2.13;1.17;;;16.50;51.40;;;;;;5044787;28;20223;-51
2021/10/21 06:25:10;;;;;;;5.40;1.53;;;16.80;51.90;;;;;;5043657;28;21754;-52
2021/10/21 06:27:37;;;;;;;2.67;1.03;;;16.80;51.70;;;;;;5048524;28;20461;-52
2021/10/21 06:30:04;;;;;;;3.10;1.43;;;16.70;51.30;;;;;;5055278;28;20469;-52
2021/10/21 06:32:30;;;;;;;7.17;2.10;;;16.40;51.40;;;;;;5044827;28;20470;-52
2021/10/21 06:34:55;;;;;;;6.23;1.17;;;16.60;51.40;;;;;;5047988;28;20455;-52
2021/10/21 06:37:21;;;;;;;3.83;1.60;;;16.60;51.40;;;;;;5049910;28;20185;-53
2021/10/21 06:39:53;;;;;;;3.37;1.63;;;16.40;51.00;;;;;;5053571;28;20235;-52
2021/10/21 06:42:20;;;;;;;2.63;1.40;;;16.40;51.10;;;;;;5050292;28;20590;-52
2021/10/21 06:44:45;;;;;;;7.60;1.30;;;16.30;50.40;;;;;;5044908;28;20438;-53
2021/10/21 06:47:11;;;;;;;2.87;1.40;;;16.30;50.30;;;;;;5045861;28;20439;-52
2021/10/21 06:49:36;;;;;;;3.23;1.30;;;16.30;50.80;;;;;;5044605;28;20203;-53
2021/10/21 06:52:02;;;;;;;4.33;1.53;;;16.30;50.50;;;;;;5044513;28;20264;-51
2021/10/21 06:54:28;;;;;;;3.73;1.40;;;16.20;50.20;;;;;;5046163;28;20193;-53
2021/10/21 06:56:53;;;;;;;2.57;1.57;;;16.40;50.20;;;;;;5050688;28;20574;-49
2021/10/21 06:59:19;;;;;;;2.57;1.20;;;16.80;49.80;;;;;;5044238;28;20667;-49
2021/10/21 07:01:45;;;;;;;4.80;1.33;;;16.70;48.80;;;;;;5051812;28;20272;-49
2021/10/21 07:04:10;;;;;;;1.13;1.03;;;17.00;49.20;;;;;;5047890;28;20201;-49
2021/10/21 07:06:36;;;;;;;3.90;1.10;;;16.90;48.50;;;;;;5047286;28;20250;-51
2021/10/21 07:09:02;;;;;;;4.40;1.17;;;16.80;48.20;;;;;;5048430;28;20205;-51
2021/10/21 07:11:28;;;;;;;1.13;1.00;;;16.90;48.20;;;;;;5038152;28;20275;-51
2021/10/21 07:13:54;;;;;;;3.30;1.80;;;17.00;48.70;;;;;;5035098;28;20463;-50
2021/10/21 07:16:19;;;;;;;2.87;1.20;;;17.00;48.30;;;;;;5047209;28;20227;-52
2021/10/21 07:18:45;;;;;;;2.37;1.07;;;16.90;48.20;;;;;;5045924;28;20232;-53
2021/10/21 07:21:15;;;;;;;3.00;1.20;;;17.10;48.20;;;;;;5049432;28;20311;-51
2021/10/21 07:23:41;;;;;;;3.57;0.93;;;17.10;47.70;;;;;;5051726;28;20302;-49
2021/10/21 07:26:06;;;;;;;4.00;2.10;;;17.00;47.90;;;;;;5050079;28;20518;-49
2021/10/21 07:28:32;;;;;;;5.43;1.00;;;17.00;48.30;;;;;;5046566;28;20196;-50
2021/10/21 07:30:58;;;;;;;3.30;1.03;;;16.90;47.90;;;;;;5044184;28;20189;-50
2021/10/21 07:33:24;;;;;;;5.47;1.50;;;16.90;47.60;;;;;;5041354;28;21488;-54
2021/10/21 07:35:49;;;;;;;9.60;1.60;;;16.80;47.60;;;;;;5045455;28;20514;-53
2021/10/21 07:38:15;;;;;;;6.43;1.40;;;16.70;48.00;;;;;;5042523;28;20185;-51
2021/10/21 07:40:41;;;;;;;1.53;0.90;;;16.80;48.20;;;;;;5034032;28;20274;-51
2021/10/21 07:43:12;;;;;;;2.90;1.10;;;16.70;48.30;;;;;;5042994;28;20275;-50
2021/10/21 07:45:38;;;;;;;2.60;1.00;;;16.60;48.40;;;;;;5044646;28;20439;-50
2021/10/21 07:48:06;;;;;;;3.17;1.30;;;16.70;48.50;;;;;;5043037;28;20443;-51
2021/10/21 07:50:32;;;;;;;7.70;1.33;;;16.70;48.50;;;;;;5041762;28;20347;-48
2021/10/21 07:52:57;;;;;;;2.20;0.97;;;16.40;47.90;;;;;;5046488;28;20549;-48
2021/10/21 07:55:23;;;;;;;4.73;0.90;;;16.50;48.30;;;;;;5043092;28;20498;-49
2021/10/21 07:57:49;;;;;;;3.93;1.10;;;16.50;47.70;;;;;;5037583;28;20193;-47
2021/10/21 08:00:14;;;;;;;4.63;1.03;;;16.50;47.80;;;;;;5046279;28;20224;-48
2021/10/21 08:02:43;;;;;;;2.10;1.13;;;16.60;47.70;;;;;;5040230;28;20196;-50
2021/10/21 08:05:10;;;;;;;3.70;0.90;;;16.70;47.80;;;;;;5038456;28;20191;-52
2021/10/21 08:07:44;;;;;;;5.03;1.00;;;16.60;48.00;;;;;;5040709;28;20440;-51
2021/10/21 08:10:11;;;;;;;2.00;0.80;;;16.40;47.60;;;;;;5041517;28;20792;-47
2021/10/21 08:12:38;;;;;;;4.63;1.30;;;16.50;48.30;;;;;;5038005;28;20431;-45
2021/10/21 08:15:04;;;;;;;3.17;0.90;;;16.90;48.20;;;;;;5040335;28;20538;-46
2021/10/21 08:17:31;;;;;;;1.17;0.93;;;16.80;47.50;;;;;;5043867;28;20428;-47
2021/10/21 08:19:57;;;;;;;5.30;1.13;;;17.00;47.80;;;;;;5036040;28;20845;-47
2021/10/21 08:22:23;;;;;;;1.63;0.93;;;17.20;47.70;;;;;;5045090;28;20528;-46
2021/10/21 08:24:49;;;;;;;5.57;1.23;;;17.10;47.30;;;;;;5041811;28;20950;-47
2021/10/21 08:27:15;;;;;;;3.53;0.80;;;17.20;47.40;;;;;;5046941;28;20550;-49
2021/10/21 08:29:40;;;;;;;9.00;1.50;;;17.10;47.10;;;;;;5034341;28;20432;-46
2021/10/21 08:32:07;;;;;;;1.87;0.80;;;17.00;47.20;;;;;;5047502;28;20294;-46
2021/10/21 08:34:35;;;;;;;3.17;0.87;;;17.00;47.50;;;;;;5046156;28;20221;-50
2021/10/21 08:37:02;;;;;;;3.43;1.00;;;16.90;47.20;;;;;;5042490;28;20965;-46
2021/10/21 08:39:28;;;;;;;4.00;0.57;;;17.10;47.50;;;;;;5041804;28;20519;-46
2021/10/21 08:41:54;;;;;;;2.50;0.80;;;17.30;47.50;;;;;;5046303;28;20435;-47
2021/10/21 08:44:19;;;;;;;2.30;0.97;;;17.00;47.00;;;;;;5046382;28;20188;-47
2021/10/21 08:46:53;;;;;;;3.53;0.93;;;17.00;47.30;;;;;;5050769;28;20600;-50
2021/10/21 08:49:19;;;;;;;1.57;0.80;;;16.90;47.40;;;;;;5039401;28;20196;-50
2021/10/21 08:51:46;;;;;;;1.53;0.90;;;16.90;47.80;;;;;;5044762;28;20521;-48
2021/10/21 08:54:12;;;;;;;4.53;0.90;;;17.00;47.80;;;;;;5037407;28;20452;-47
2021/10/21 08:56:38;;;;;;;4.30;1.10;;;17.10;48.00;;;;;;5075069;28;20445;-47
2021/10/21 08:59:04;;;;;;;1.83;0.90;;;17.30;48.30;;;;;;5040033;28;20471;-49
2021/10/21 09:02:03;;;;;;;2.60;0.90;;;17.40;48.60;;;;;;5044250;28;20188;-47
2021/10/21 09:10:06;;;;;;;2.20;0.80;;;16.60;49.90;;;;;;5041549;28;20434;-50
2021/10/21 09:12:48;;;;;;;7.50;1.23;;;16.40;50.80;;;;;;5044433;28;20431;-47
2021/10/21 09:15:20;;;;;;;3.90;0.70;;;16.60;51.10;;;;;;5044714;28;20503;-49
2021/10/21 09:17:47;;;;;;;2.00;0.83;;;16.80;50.50;;;;;;5046701;28;20440;-45
2021/10/21 09:20:25;;;;;;;5.80;0.97;;;16.90;50.50;;;;;;5043749;28;20482;-47
2021/10/21 09:22:57;;;;;;;0.63;0.63;;;17.00;49.40;;;;;;5043361;28;21063;-46
2021/10/21 09:25:24;;;;;;;0.50;0.50;;;16.90;49.60;;;;;;5043131;28;20805;-51
2021/10/21 09:27:50;;;;;;;2.73;0.60;;;16.90;50.00;;;;;;5047824;28;20434;-47
2021/10/21 09:30:23;;;;;;;0.93;0.70;;;16.90;49.40;;;;;;5047880;28;20431;-47
2021/10/21 09:32:49;;;;;;;3.13;0.77;;;17.20;49.50;;;;;;5044579;28;20439;-47
2021/10/21 09:35:18;;;;;;;2.30;0.73;;;17.40;48.80;;;;;;5039186;28;20794;-47
2021/10/21 09:37:46;;;;;;;1.10;0.60;;;17.60;48.30;;;;;;5045831;28;20196;-47
2021/10/21 09:40:26;;;;;;;0.80;0.57;;;17.90;48.30;;;;;;5044706;28;20942;-48
2021/10/21 09:43:04;;;;;;;1.90;0.80;;;17.60;47.70;;;;;;5044446;28;20492;-46
2021/10/21 09:45:40;;;;;;;1.00;0.90;;;17.50;47.90;;;;;;5035452;28;20490;-50
2021/10/21 09:48:08;;;;;;;0.90;0.60;;;17.60;48.20;;;;;;5036475;28;20439;-50
2021/10/21 09:50:36;;;;;;;2.10;0.80;;;17.30;48.30;;;;;;5040227;28;20423;-48
2021/10/21 09:53:20;;;;;;;1.60;0.50;;;17.70;48.90;;;;;;5040174;28;20535;-51
2021/10/21 09:55:51;;;;;;;0.60;0.50;;;17.60;48.00;;;;;;5037135;28;20473;-49
2021/10/21 09:58:27;;;;;;;0.50;0.50;;;17.50;47.70;;;;;;5047491;28;20439;-49
2021/10/21 10:01:17;;;;;;;1.17;0.67;;;17.10;48.50;;;;;;5040777;28;20530;-47
2021/10/21 10:03:44;;;;;;;3.10;0.90;;;17.40;49.30;;;;;;5047447;28;20468;-47
2021/10/21 10:06:11;;;;;;;1.93;0.90;;;17.50;49.30;;;;;;5047060;28;20446;-47
2021/10/21 10:08:37;;;;;;;0.83;0.60;;;17.90;48.30;;;;;;5049667;28;20535;-46
2021/10/21 10:11:09;;;;;;;2.40;0.60;;;17.50;46.90;;;;;;5037257;28;20872;-46
2021/10/21 10:13:35;;;;;;;1.73;0.50;;;17.70;46.70;;;;;;5049948;28;20234;-47
2021/10/21 10:16:01;;;;;;;2.40;0.87;;;17.70;45.70;;;;;;5059879;28;20430;-46
2021/10/21 10:18:31;;;;;;;1.17;0.80;;;17.50;44.90;;;;;;5061521;28;20462;-47
2021/10/21 10:21:12;;;;;;;1.80;0.80;;;17.80;45.90;;;;;;5045638;28;20449;-46
2021/10/21 10:23:51;;;;;;;2.33;0.70;;;18.00;45.30;;;;;;5049118;28;20445;-45
2021/10/21 10:26:39;;;;;;;1.53;0.50;;;17.90;44.90;;;;;;5046114;28;20472;-46
2021/10/21 10:29:04;;;;;;;2.90;0.73;;;17.90;45.00;;;;;;5046709;28;20942;-47
2021/10/21 10:31:49;;;;;;;1.20;0.80;;;17.90;44.60;;;;;;5043113;28;20431;-46
2021/10/21 10:34:40;;;;;;;2.50;0.80;;;18.10;44.40;;;;;;5045404;28;20208;-48
2021/10/21 10:37:19;;;;;;;4.33;1.00;;;18.40;44.50;;;;;;5036603;28;20443;-45
2021/10/21 10:40:02;;;;;;;1.60;0.97;;;18.90;44.60;;;;;;5044909;28;20533;-46
2021/10/21 10:42:42;;;;;;;1.30;1.07;;;19.00;42.50;;;;;;5044277;28;20432;-46
2021/10/21 10:45:12;;;;;;;1.70;0.70;;;19.20;42.90;;;;;;5047222;28;20465;-50
2021/10/21 10:47:45;;;;;;;2.43;0.80;;;19.50;41.30;;;;;;5055435;28;20818;-50
2021/10/21 10:50:23;;;;;;;1.00;0.83;;;19.50;41.60;;;;;;5061929;28;20474;-48
2021/10/21 10:52:53;;;;;;;3.60;1.17;;;19.50;40.40;;;;;;5042847;28;20457;-49
2021/10/21 10:55:24;;;;;;;1.13;0.80;;;19.10;40.60;;;;;;5050569;28;20468;-50
2021/10/21 10:57:52;;;;;;;1.93;0.80;;;19.30;41.00;;;;;;5052940;28;20522;-51
2021/10/21 11:00:37;;;;;;;1.43;0.87;;;19.10;40.60;;;;;;5050251;28;20549;-51
2021/10/21 11:03:03;;;;;;;1.87;1.10;;;19.00;40.70;;;;;;5043395;28;20439;-50
2021/10/21 11:05:44;;;;;;;1.90;0.80;;;19.10;40.90;;;;;;5052544;28;20427;-49
2021/10/21 11:08:19;;;;;;;7.47;1.17;;;19.20;41.00;;;;;;5052056;28;20451;-47
2021/10/21 11:10:51;;;;;;;1.47;0.90;;;19.50;40.50;;;;;;5050907;28;20438;-50
2021/10/21 11:13:19;;;;;;;2.03;0.80;;;19.50;40.10;;;;;;5067389;28;20471;-48
2021/10/21 11:15:49;;;;;;;1.27;0.87;;;19.20;40.60;;;;;;5039046;28;20466;-49
2021/10/21 11:18:41;;;;;;;1.80;1.00;;;19.20;40.50;;;;;;5049247;28;20825;-50
2021/10/21 11:21:07;;;;;;;5.37;1.23;;;19.20;40.20;;;;;;5036505;28;20512;-48
2021/10/21 11:23:32;;;;;;;1.70;1.17;;;19.00;40.10;;;;;;5033177;28;20976;-48
2021/10/21 11:26:06;;;;;;;1.90;1.10;;;19.00;39.40;;;;;;5042799;28;20257;-48
2021/10/21 11:28:34;;;;;;;4.47;0.90;;;18.80;39.90;;;;;;5050105;28;20557;-50
2021/10/21 11:31:01;;;;;;;1.53;1.30;;;18.90;39.70;;;;;;5044281;28;20506;-50
2021/10/21 11:33:28;;;;;;;1.20;0.80;;;19.10;39.80;;;;;;5049101;28;20442;-47
2021/10/21 11:36:01;;;;;;;5.23;1.00;;;19.20;40.20;;;;;;5048776;28;21278;-49
2021/10/21 11:38:27;;;;;;;1.83;1.00;;;19.40;39.80;;;;;;5059355;28;20439;-51
2021/10/21 11:40:56;;;;;;;3.53;1.00;;;19.50;39.40;;;;;;5037119;28;20804;-48
2021/10/21 11:43:35;;;;;;;1.50;0.80;;;19.40;39.30;;;;;;5050624;28;20272;-48
2021/10/21 11:46:04;;;;;;;1.07;0.80;;;19.20;39.50;;;;;;5042752;28;20522;-48
2021/10/21 11:48:32;;;;;;;4.00;1.00;;;19.30;40.00;;;;;;5048628;28;20427;-47
2021/10/21 11:51:01;;;;;;;2.40;1.03;;;19.50;38.90;;;;;;5044756;28;20591;-47
2021/10/21 11:53:28;;;;;;;1.20;0.87;;;19.50;39.10;;;;;;5045568;28;20855;-47
2021/10/21 11:55:57;;;;;;;3.00;1.27;;;19.60;38.80;;;;;;5039360;28;20447;-48
2021/10/21 11:58:28;;;;;;;1.83;1.00;;;19.70;39.00;;;;;;5041947;28;20448;-51
2021/10/21 12:01:11;;;;;;;3.03;1.00;;;20.00;38.30;;;;;;5045741;28;20439;-48
2021/10/21 12:03:39;;;;;;;4.30;1.00;;;19.90;38.60;;;;;;5043953;28;20435;-47
2021/10/21 12:06:07;;;;;;;0.93;0.80;;;20.20;39.10;;;;;;5052636;28;21261;-46
2021/10/21 12:08:33;;;;;;;2.20;1.07;;;20.10;37.50;;;;;;5052724;28;20439;-53
2021/10/21 12:11:04;;;;;;;3.73;0.83;;;19.90;37.60;;;;;;5050699;28;20443;-50
2021/10/21 12:13:32;;;;;;;0.77;0.77;;;19.70;38.20;;;;;;5052493;28;20872;-50
2021/10/21 12:16:00;;;;;;;2.50;1.10;;;19.70;38.20;;;;;;5051910;28;20929;-46
2021/10/21 12:18:30;;;;;;;2.40;0.80;;;20.00;38.80;;;;;;5050719;28;20535;-47
2021/10/21 12:20:59;;;;;;;1.20;0.93;;;20.10;38.90;;;;;;5048875;28;20829;-47
2021/10/21 12:23:30;;;;;;;6.53;1.40;;;20.40;38.50;;;;;;5042198;28;20473;-47
2021/10/21 12:26:02;;;;;;;2.97;1.30;;;20.30;37.40;;;;;;5042569;28;20972;-50
2021/10/21 12:28:47;;;;;;;2.10;1.20;;;20.30;37.30;;;;;;5052314;28;20415;-51
2021/10/21 12:31:32;;;;;;;3.07;0.90;;;20.20;37.20;;;;;;5049631;28;20509;-47
2021/10/21 12:34:10;;;;;;;2.60;0.80;;;20.00;37.30;;;;;;5052313;28;20489;-50
2021/10/21 12:36:42;;;;;;;3.60;0.90;;;20.10;37.00;;;;;;5052103;28;20442;-47
2021/10/21 12:39:12;;;;;;;2.00;0.90;;;19.90;36.70;;;;;;5051604;28;20490;-48
2021/10/21 12:41:54;;;;;;;1.90;1.00;;;20.10;37.40;;;;;;5050007;28;20972;-46
2021/10/21 12:44:22;;;;;;;1.57;1.00;;;20.00;37.00;;;;;;5049979;28;20493;-49
2021/10/21 12:46:48;;;;;;;1.20;0.90;;;19.80;36.60;;;;;;5052236;28;20518;-48
2021/10/21 12:49:18;;;;;;;1.33;0.70;;;19.80;37.20;;;;;;5051266;28;20438;-47
2021/10/21 12:51:46;;;;;;;2.30;0.97;;;19.80;37.10;;;;;;5050652;28;20917;-50
2021/10/21 12:54:27;;;;;;;1.10;0.80;;;19.60;37.70;;;;;;5051240;28;20976;-50